Time;durP1;ratioP1;P1;durP2;ratioP2;P2;SDS_P1;SDS_P2;PMS_P1;PMS_P2;Temp;Humidity;BMP_temperature;BMP_pressure;BME280_temperature;BME280_humidity;BME280_pressure;Samples;Min_cycle;Max_cycle;Signal;HPM_P1;HPM_P2
2023/06/16 00:02:17;;;;;;;11.07;6.35;;;;;;;-142.75;100.00;76717.94;5026421;28;20025;-65
2023/06/16 00:04:43;;;;;;;10.35;5.78;;;;;;;-142.75;100.00;76712.03;5025726;28;20044;-65
2023/06/16 00:07:11;;;;;;;9.30;6.05;;;;;;;-142.75;100.00;76712.03;5026614;28;20064;-65
2023/06/16 00:09:37;;;;;;;8.90;5.60;;;;;;;-142.75;100.00;76715.97;5026535;28;20025;-65
2023/06/16 00:12:03;;;;;;;9.15;5.95;;;;;;;-142.75;100.00;76719.91;5026448;28;20021;-65
2023/06/16 00:14:28;;;;;;;7.53;5.85;;;;;;;-142.75;100.00;76715.97;5026700;28;20025;-64
2023/06/16 00:16:53;;;;;;;13.90;6.45;;;;;;;-142.75;100.00;76719.91;5026616;28;20021;-65
2023/06/16 00:19:21;;;;;;;9.50;5.60;;;;;;;-142.75;100.00;76714.00;5026281;28;20450;-64
2023/06/16 00:21:48;;;;;;;11.13;5.78;;;;;;;-142.75;100.00;76715.97;5026171;28;20065;-64
2023/06/16 00:24:13;;;;;;;8.23;5.45;;;;;;;-142.75;100.00;76717.94;5025991;28;20048;-64
2023/06/16 00:26:38;;;;;;;9.38;5.78;;;;;;;-142.75;100.00;76719.91;5041579;28;20625;-65
2023/06/16 00:29:05;;;;;;;10.10;6.13;;;;;;;-142.75;100.00;76719.91;5026026;28;20043;-64
2023/06/16 00:31:31;;;;;;;12.48;6.30;;;;;;;-142.75;100.00;76723.84;5025887;28;20022;-64
2023/06/16 00:33:58;;;;;;;9.27;5.25;;;;;;;-142.75;100.00;76721.88;5026121;28;20387;-64
2023/06/16 00:36:23;;;;;;;10.48;5.82;;;;;;;-142.75;100.00;76715.97;5025347;28;20031;-65
2023/06/16 00:38:48;;;;;;;11.95;6.68;;;;;;;-142.75;100.00;76714.00;5026485;28;20029;-65
2023/06/16 00:41:14;;;;;;;14.50;6.57;;;;;;;-142.75;100.00;76717.94;5025809;28;20109;-64
2023/06/16 00:43:39;;;;;;;10.70;6.15;;;;;;;-142.75;100.00;76715.97;5025799;28;20025;-65
2023/06/16 00:46:05;;;;;;;12.30;5.93;;;;;;;-142.75;100.00;76723.84;5026019;28;20044;-65
2023/06/16 00:48:31;;;;;;;10.27;6.13;;;;;;;-142.75;100.00;76723.84;5025791;28;20029;-64
2023/06/16 00:50:57;;;;;;;11.90;6.45;;;;;;;-142.75;100.00;76723.84;5025626;28;20064;-64
2023/06/16 00:53:23;;;;;;;9.45;6.30;;;;;;;-142.75;100.00;76721.88;5025659;28;20022;-64
2023/06/16 00:55:48;;;;;;;11.35;6.03;;;;;;;-142.75;100.00;76723.84;5025656;28;20036;-63
2023/06/16 00:58:17;;;;;;;8.90;5.75;;;;;;;-142.75;100.00;76723.84;5025581;28;20027;-63
2023/06/16 01:00:43;;;;;;;8.90;5.72;;;;;;;-142.75;100.00;76725.81;5025646;28;20025;-64
2023/06/16 01:03:12;;;;;;;8.27;5.22;;;;;;;-142.75;100.00;76725.81;5025414;28;20095;-64
2023/06/16 01:05:39;;;;;;;9.20;5.50;;;;;;;-142.75;100.00;76725.81;5025681;28;20394;-64
2023/06/16 01:08:19;;;;;;;11.48;6.00;;;;;;;-142.75;100.00;76727.78;5025818;28;20049;-64
2023/06/16 01:11:07;;;;;;;8.27;5.90;;;;;;;-142.75;100.00;76737.63;5025551;28;20441;-65
2023/06/16 01:13:44;;;;;;;9.23;5.88;;;;;;;-142.75;100.00;76739.59;5025345;28;20401;-64
2023/06/16 01:16:10;;;;;;;9.75;5.70;;;;;;;-142.75;100.00;76735.66;5025367;28;20025;-65
2023/06/16 01:18:39;;;;;;;9.82;6.30;;;;;;;-142.75;100.00;76741.56;5024012;28;20742;-64
2023/06/16 01:21:37;;;;;;;9.75;6.43;;;;;;;-142.75;100.00;76737.63;5025339;28;20398;-64
2023/06/16 01:24:13;;;;;;;8.95;5.90;;;;;;;-142.75;100.00;76741.56;5025248;28;20029;-64
2023/06/16 01:26:44;;;;;;;8.77;6.25;;;;;;;-142.75;100.00;76745.50;5025193;28;20665;-64
2023/06/16 01:29:12;;;;;;;13.75;6.40;;;;;;;-142.75;100.00;76751.41;5024806;28;20509;-64
2023/06/16 01:31:40;;;;;;;10.20;6.13;;;;;;;-142.75;100.00;76747.47;5025115;28;20041;-65
2023/06/16 01:34:07;;;;;;;9.15;5.78;;;;;;;-142.75;100.00;76755.34;5025070;28;20107;-64
2023/06/16 01:36:35;;;;;;;7.53;5.80;;;;;;;-142.75;100.00;76759.28;5025243;28;20036;-65
2023/06/16 01:39:02;;;;;;;11.00;5.75;;;;;;;-142.75;100.00;76757.31;5025718;28;20532;-64
2023/06/16 01:41:28;;;;;;;8.07;5.43;;;;;;;-142.75;100.00;76759.28;5024652;28;20035;-64
2023/06/16 01:43:54;;;;;;;7.32;5.15;;;;;;;-142.75;100.00;76763.22;5025040;28;20025;-65
2023/06/16 01:46:20;;;;;;;8.38;5.07;;;;;;;-142.75;100.00;76767.16;5025048;28;20036;-65
2023/06/16 01:48:46;;;;;;;10.88;6.47;;;;;;;-142.75;100.00;76765.19;5028979;28;20025;-65
2023/06/16 01:51:13;;;;;;;10.18;6.15;;;;;;;-142.75;100.00;76771.09;5028654;28;20375;-64
2023/06/16 01:53:39;;;;;;;10.75;5.72;;;;;;;-142.75;100.00;76773.06;5029032;28;20036;-65
2023/06/16 01:56:04;;;;;;;9.73;6.13;;;;;;;-142.75;100.00;76775.03;5028929;28;20025;-64
2023/06/16 01:58:30;;;;;;;8.75;5.97;;;;;;;-142.75;100.00;76778.97;5029005;28;20120;-65
2023/06/16 02:01:05;;;;;;;11.05;6.25;;;;;;;-142.75;100.00;76767.16;5028774;28;20076;-65
2023/06/16 02:03:48;;;;;;;8.57;5.38;;;;;;;-142.75;100.00;76763.22;5028806;28;20048;-64
2023/06/16 02:06:37;;;;;;;8.98;5.22;;;;;;;-142.75;100.00;76759.28;5028844;28;20033;-65
2023/06/16 02:09:05;;;;;;;8.73;6.10;;;;;;;-142.75;100.00;76761.25;5029150;28;20510;-64
2023/06/16 02:11:32;;;;;;;8.18;5.40;;;;;;;-142.75;100.00;76767.16;5028669;28;20075;-64
2023/06/16 02:13:57;;;;;;;10.07;5.68;;;;;;;-142.75;100.00;76767.16;5028529;28;20037;-64
2023/06/16 02:16:23;;;;;;;9.77;5.53;;;;;;;-142.75;100.00;76767.16;5029030;28;20398;-65
2023/06/16 02:18:53;;;;;;;8.40;5.68;;;;;;;-142.75;100.00;76763.22;5028402;28;20077;-65
2023/06/16 02:21:20;;;;;;;10.00;5.60;;;;;;;-142.75;100.00;76763.22;5028439;28;20029;-65
2023/06/16 02:23:45;;;;;;;10.60;5.50;;;;;;;-142.75;100.00;76765.19;5028239;28;20029;-65
2023/06/16 02:26:10;;;;;;;8.80;5.45;;;;;;;-142.75;100.00;76759.28;5028399;28;20033;-64
2023/06/16 02:28:36;;;;;;;6.57;4.80;;;;;;;-142.75;100.00;76761.25;5028280;28;20087;-65
2023/06/16 02:31:01;;;;;;;9.23;5.28;;;;;;;-142.75;100.00;76771.09;5028366;28;20486;-65
2023/06/16 02:33:26;;;;;;;9.15;5.22;;;;;;;-142.75;100.00;76775.03;5028133;28;20064;-64
2023/06/16 02:35:52;;;;;;;8.93;4.80;;;;;;;-142.75;100.00;76775.03;5028768;28;20056;-65
2023/06/16 02:38:17;;;;;;;7.65;4.93;;;;;;;-142.75;100.00;76786.84;5028536;28;20031;-65
2023/06/16 02:40:42;;;;;;;8.02;5.28;;;;;;;-142.75;100.00;76786.84;5028471;28;20036;-64
2023/06/16 02:43:08;;;;;;;8.60;5.20;;;;;;;-142.75;100.00;76790.78;5027931;28;20029;-64
2023/06/16 02:45:33;;;;;;;7.72;4.95;;;;;;;-142.75;100.00;76790.78;5028135;28;20064;-64
2023/06/16 02:47:58;;;;;;;10.40;4.75;;;;;;;-142.75;100.00;76806.50;5027767;28;20033;-64
2023/06/16 02:50:24;;;;;;;7.50;5.13;;;;;;;-142.75;100.00;76816.34;5028206;28;20080;-65
2023/06/16 02:52:49;;;;;;;10.68;5.20;;;;;;;-142.75;100.00;76806.50;5027928;28;20034;-65
2023/06/16 02:55:15;;;;;;;6.53;4.70;;;;;;;-142.75;100.00;76810.44;5028098;28;20041;-65
2023/06/16 02:57:41;;;;;;;7.85;5.15;;;;;;;-142.75;100.00;76818.31;5028827;28;20037;-64
2023/06/16 03:00:11;;;;;;;7.53;4.68;;;;;;;-142.75;100.00;76816.34;5027233;28;20113;-65
2023/06/16 03:02:37;;;;;;;8.05;4.45;;;;;;;-142.75;100.00;76822.25;5027834;28;20025;-65
2023/06/16 03:05:03;;;;;;;8.60;4.32;;;;;;;-142.75;100.00;76822.25;5027967;28;20041;-64
2023/06/16 03:07:31;;;;;;;6.57;4.10;;;;;;;-142.75;100.00;76822.25;5027706;28;20021;-64
2023/06/16 03:09:57;;;;;;;8.20;4.40;;;;;;;-142.75;100.00;76830.13;5028144;28;20405;-61
2023/06/16 03:12:22;;;;;;;12.18;4.88;;;;;;;-142.75;100.00;76849.81;5027215;28;20520;-64
2023/06/16 03:14:48;;;;;;;7.78;3.75;;;;;;;-142.75;100.00;76853.75;5027442;28;20108;-65
2023/06/16 03:17:13;;;;;;;8.23;3.75;;;;;;;-142.75;100.00;76847.84;5027371;28;20108;-64
2023/06/16 03:19:40;;;;;;;6.20;3.88;;;;;;;-142.75;100.00;76857.69;5027497;28;20025;-64
2023/06/16 03:22:05;;;;;;;8.35;4.10;;;;;;;-142.75;100.00;76865.56;5027070;28;20393;-64
2023/06/16 03:24:33;;;;;;;8.38;3.75;;;;;;;-142.75;100.00;76869.50;5027283;28;20029;-64
2023/06/16 03:26:58;;;;;;;7.38;4.05;;;;;;;-142.75;100.00;76861.63;5027154;28;20025;-63
2023/06/16 03:29:24;;;;;;;8.85;4.20;;;;;;;-142.75;100.00;76861.63;5027303;28;20108;-64
2023/06/16 03:31:49;;;;;;;7.93;3.83;;;;;;;-142.75;100.00;76865.56;5026917;28;20483;-65
2023/06/16 03:34:15;;;;;;;6.38;3.95;;;;;;;-142.75;100.00;76869.50;5027273;28;20084;-64
2023/06/16 03:36:40;;;;;;;6.40;4.35;;;;;;;-142.75;100.00;76865.56;5027455;28;20632;-65
2023/06/16 03:39:06;;;;;;;8.60;3.72;;;;;;;-142.75;100.00;76885.25;5027503;28;20060;-64
2023/06/16 03:41:35;;;;;;;7.25;4.57;;;;;;;-142.75;100.00;76881.31;5026881;28;20033;-64
2023/06/16 03:44:01;;;;;;;8.00;4.25;;;;;;;-142.75;100.00;76881.31;5026907;28;20025;-65
2023/06/16 03:46:28;;;;;;;8.27;5.03;;;;;;;-142.75;100.00;76885.25;5026709;28;20033;-65
2023/06/16 03:48:55;;;;;;;6.45;3.92;;;;;;;-142.75;100.00;76883.28;5026818;28;20473;-64
2023/06/16 03:51:20;;;;;;;8.23;4.78;;;;;;;-142.75;100.00;76889.19;5026457;28;20029;-65
2023/06/16 03:53:46;;;;;;;14.18;4.88;;;;;;;-142.75;100.00;76899.03;5026487;28;20083;-64
2023/06/16 03:56:11;;;;;;;8.05;4.60;;;;;;;-142.75;100.00;76897.06;5026821;28;20195;-65
2023/06/16 03:58:37;;;;;;;10.52;4.88;;;;;;;-142.75;100.00;76901.00;5026652;28;20029;-64
2023/06/16 04:01:03;;;;;;;5.72;3.67;;;;;;;-142.75;100.00;76897.06;5026244;28;20033;-64
2023/06/16 04:03:28;;;;;;;8.02;4.63;;;;;;;-142.75;100.00;76897.06;5026486;28;20026;-64
2023/06/16 04:05:54;;;;;;;6.28;4.18;;;;;;;-142.75;100.00;76889.19;5027070;28;20036;-64
2023/06/16 04:08:20;;;;;;;8.07;4.03;;;;;;;-142.75;100.00;76883.28;5026666;28;20896;-64
2023/06/16 04:10:45;;;;;;;10.20;4.43;;;;;;;-142.75;100.00;76885.25;5026847;28;20689;-64
2023/06/16 04:13:11;;;;;;;7.30;4.22;;;;;;;-142.75;100.00;76879.34;5025995;28;20376;-64
2023/06/16 04:15:36;;;;;;;6.63;3.70;;;;;;;-142.75;100.00;76873.44;5026400;28;20060;-64
2023/06/16 04:18:01;;;;;;;8.27;5.03;;;;;;;-142.75;100.00;76867.53;5026093;28;20044;-64
2023/06/16 04:20:27;;;;;;;8.75;4.53;;;;;;;-142.75;100.00;76863.59;5026369;28;20087;-64
2023/06/16 04:22:52;;;;;;;7.65;5.00;;;;;;;-142.75;100.00;76857.69;5025969;28;20053;-65
2023/06/16 04:25:18;;;;;;;7.72;4.60;;;;;;;-142.75;100.00;76857.69;5041449;28;20033;-64
2023/06/16 04:27:43;;;;;;;11.95;4.25;;;;;;;-142.75;100.00;76861.63;5026016;28;20033;-64
2023/06/16 04:30:09;;;;;;;10.77;4.95;;;;;;;-142.75;100.00;76853.75;5025889;28;20025;-65
2023/06/16 04:32:36;;;;;;;8.55;5.28;;;;;;;-142.75;100.00;76841.94;5025966;28;20040;-65
2023/06/16 04:35:04;;;;;;;10.98;5.05;;;;;;;-142.75;100.00;76828.16;5026007;28;20433;-65
2023/06/16 04:37:30;;;;;;;7.43;4.03;;;;;;;-142.75;100.00;76816.34;5025998;28;20033;-63
2023/06/16 04:39:55;;;;;;;9.07;4.85;;;;;;;-142.75;100.00;76796.69;5027100;28;20037;-65
2023/06/16 04:42:20;;;;;;;7.90;4.25;;;;;;;-142.75;100.00;76802.56;5025454;28;20026;-64
2023/06/16 04:44:46;;;;;;;10.15;4.35;;;;;;;-142.75;100.00;76794.69;5025852;28;20036;-65
2023/06/16 04:47:12;;;;;;;7.45;4.75;;;;;;;-142.75;100.00;76800.63;5025851;28;20059;-65
2023/06/16 04:49:38;;;;;;;8.35;5.00;;;;;;;-142.75;100.00;76802.56;5025659;28;20037;-65
2023/06/16 04:52:03;;;;;;;7.07;4.47;;;;;;;-142.75;100.00;76794.69;5025489;28;20025;-63
2023/06/16 04:54:29;;;;;;;9.75;4.60;;;;;;;-142.75;100.00;76800.63;5025673;28;20037;-65
2023/06/16 04:56:54;;;;;;;7.47;4.75;;;;;;;-142.75;100.00;76802.56;5026035;28;20041;-65
2023/06/16 04:59:20;;;;;;;8.63;4.50;;;;;;;-142.75;100.00;76788.81;5025234;28;20498;-65
2023/06/16 05:01:45;;;;;;;9.43;4.57;;;;;;;-142.75;100.00;76775.03;5025619;28;20594;-64
2023/06/16 05:04:11;;;;;;;8.10;4.38;;;;;;;-142.75;100.00;76767.16;5025489;28;20029;-65
2023/06/16 05:06:36;;;;;;;7.88;4.63;;;;;;;-142.75;100.00;76763.22;5025555;28;20071;-64
2023/06/16 05:09:03;;;;;;;6.80;4.50;;;;;;;-142.75;100.00;76751.41;5026002;28;20040;-65
2023/06/16 05:11:28;;;;;;;9.93;4.88;;;;;;;-142.75;100.00;76755.34;5025410;28;20029;-64
2023/06/16 05:13:53;;;;;;;9.15;5.07;;;;;;;-142.75;100.00;76743.53;5025597;28;20513;-64
2023/06/16 05:16:19;;;;;;;10.10;4.95;;;;;;;-142.75;100.00;76753.38;5025262;28;20036;-64
2023/06/16 05:18:44;;;;;;;7.55;4.90;;;;;;;-142.75;100.00;76745.50;5025377;28;20027;-64
2023/06/16 05:21:09;;;;;;;9.15;4.97;;;;;;;-142.75;100.00;76743.53;5024781;28;20028;-64
2023/06/16 05:23:36;;;;;;;7.43;4.70;;;;;;;-142.75;100.00;76733.69;5024589;28;20029;-65
2023/06/16 05:26:02;;;;;;;7.93;4.80;;;;;;;-142.75;100.00;76719.91;5024992;28;20368;-64
2023/06/16 05:28:27;;;;;;;12.02;4.53;;;;;;;-142.75;100.00;76739.59;5024740;28;20032;-64
2023/06/16 05:30:52;;;;;;;9.23;4.65;;;;;;;-142.75;100.00;76747.47;5025112;28;20041;-65
2023/06/16 05:33:17;;;;;;;8.35;5.53;;;;;;;-142.75;100.00;76729.75;5024782;28;20036;-64
2023/06/16 05:35:43;;;;;;;7.75;4.90;;;;;;;-142.75;100.00;76723.84;5024671;28;20112;-65
2023/06/16 05:38:08;;;;;;;7.90;4.68;;;;;;;-142.75;100.00;76739.59;5024980;28;20454;-64
2023/06/16 05:40:33;;;;;;;11.65;4.65;;;;;;;-142.75;100.00;76729.75;5025836;28;20033;-64
2023/06/16 05:42:59;;;;;;;8.40;4.50;;;;;;;-142.75;100.00;76712.03;5024634;28;20121;-64
2023/06/16 05:45:24;;;;;;;7.32;4.80;;;;;;;-142.75;100.00;76692.34;5024847;28;20403;-64
2023/06/16 05:47:50;;;;;;;7.13;4.25;;;;;;;-142.75;100.00;76678.56;5025238;28;20083;-65
2023/06/16 05:50:15;;;;;;;9.02;4.25;;;;;;;-142.75;100.00;76682.50;5024638;28;20028;-64
2023/06/16 05:52:40;;;;;;;12.50;4.53;;;;;;;-142.75;100.00;76684.47;5024532;28;20040;-65
2023/06/16 05:55:07;;;;;;;9.60;5.10;;;;;;;-142.75;100.00;76656.91;5023429;28;20029;-64
2023/06/16 05:57:32;;;;;;;8.48;4.88;;;;;;;-142.75;100.00;76651.00;5024796;28;20083;-64
2023/06/16 05:59:58;;;;;;;9.75;5.45;;;;;;;-142.75;100.00;76633.28;5024644;28;20487;-64
2023/06/16 06:02:24;;;;;;;7.50;4.35;;;;;;;-142.75;100.00;76611.63;5023836;28;20030;-65
2023/06/16 06:04:49;;;;;;;8.15;5.40;;;;;;;-142.75;100.00;76586.03;5024085;28;20029;-64
2023/06/16 06:07:15;;;;;;;7.07;4.90;;;;;;;-142.75;100.00;76562.41;5024107;28;20120;-64
2023/06/16 06:09:40;;;;;;;9.02;4.80;;;;;;;-142.75;100.00;76558.47;5025456;28;20025;-65
2023/06/16 06:12:07;;;;;;;5.90;4.20;;;;;;;-142.75;100.00;76536.84;5023805;28;20025;-64
2023/06/16 06:14:32;;;;;;;7.53;4.20;;;;;;;-142.75;100.00;76544.69;5022854;28;20036;-65
2023/06/16 06:16:57;;;;;;;7.93;4.20;;;;;;;-142.75;100.00;76528.97;5024295;28;20018;-59
2023/06/16 06:19:24;;;;;;;7.72;3.95;;;;;;;-142.75;100.00;76505.34;5023972;28;20021;-65
2023/06/16 06:21:49;;;;;;;8.20;3.88;;;;;;;-142.75;100.00;76483.69;5023828;28;20072;-65
2023/06/16 06:24:15;;;;;;;7.13;3.97;;;;;;;-142.75;100.00;76462.03;5023459;28;20067;-64
2023/06/16 06:26:40;;;;;;;16.85;3.67;;;;;;;-142.75;100.00;76464.00;5023560;28;20077;-65
2023/06/16 06:29:05;;;;;;;5.53;3.65;;;;;;;-142.75;100.00;76458.09;5023740;28;20034;-66
2023/06/16 06:31:32;;;;;;;9.02;4.18;;;;;;;-142.75;100.00;76448.25;5024153;28;20498;-65
2023/06/16 06:33:57;;;;;;;9.75;4.20;;;;;;;-142.75;100.00;76444.31;5026233;28;20053;-63
2023/06/16 06:36:25;;;;;;;7.60;3.30;;;;;;;-142.75;100.00;76428.56;5027783;28;20029;-65
2023/06/16 06:38:50;;;;;;;5.85;3.40;;;;;;;-142.75;100.00;76432.50;5027988;28;20052;-65
2023/06/16 06:41:17;;;;;;;5.60;3.38;;;;;;;-142.75;100.00;76412.81;5027706;28;20214;-65
2023/06/16 06:43:42;;;;;;;6.35;3.60;;;;;;;-142.75;100.00;76385.25;5027586;28;20014;-65
2023/06/16 06:46:08;;;;;;;8.07;4.25;;;;;;;-142.75;100.00;76373.44;5027507;28;20114;-65
2023/06/16 06:48:33;;;;;;;6.00;3.47;;;;;;;-142.75;100.00;76355.72;5027443;28;20100;-65
2023/06/16 06:50:59;;;;;;;4.88;3.05;;;;;;;-142.75;100.00;76340.00;5027606;28;20544;-65
2023/06/16 06:53:24;;;;;;;5.85;3.67;;;;;;;-142.75;100.00;76324.25;5027487;28;20048;-65
2023/06/16 06:55:49;;;;;;;6.65;3.63;;;;;;;-142.75;100.00;76340.00;5027358;28;20056;-65
2023/06/16 06:58:15;;;;;;;5.18;3.17;;;;;;;-142.75;100.00;76322.28;5026695;28;20032;-65
2023/06/16 07:00:40;;;;;;;4.57;3.35;;;;;;;-142.75;100.00;76294.72;5027290;28;20099;-66
2023/06/16 07:03:06;;;;;;;7.13;3.78;;;;;;;-142.75;100.00;76275.03;5026827;28;20072;-65
2023/06/16 07:05:33;;;;;;;6.10;4.35;;;;;;;-142.75;100.00;76271.09;5027163;28;20033;-64
2023/06/16 07:08:00;;;;;;;6.55;3.65;;;;;;;-142.75;100.00;76265.19;5027029;28;20029;-64
2023/06/16 07:10:25;;;;;;;8.27;4.05;;;;;;;-142.75;100.00;76239.59;5027122;28;20029;-65
2023/06/16 07:12:50;;;;;;;6.75;4.03;;;;;;;-142.75;100.00;76241.56;5026815;28;20025;-65
2023/06/16 07:15:16;;;;;;;6.63;3.70;;;;;;;-142.75;100.00;76227.78;5026909;28;20332;-63
2023/06/16 07:17:41;;;;;;;4.75;3.28;;;;;;;-142.75;100.00;76204.16;5026763;28;20025;-64
2023/06/16 07:20:07;;;;;;;8.38;3.40;;;;;;;-142.75;97.54;76176.63;5026519;28;20037;-64
2023/06/16 07:22:33;;;;;;;9.80;3.83;;;;;;;-142.75;92.60;76176.63;5026439;28;20080;-63
2023/06/16 07:24:58;;;;;;;7.43;4.28;;;;;;;-142.75;92.96;76180.56;5026721;28;20077;-62
2023/06/16 07:27:23;;;;;;;9.38;4.82;;;;;;;-142.75;90.06;76202.19;5042215;28;20021;-62
2023/06/16 07:29:48;;;;;;;5.15;3.70;;;;;;;-142.75;97.07;76164.81;5026625;28;20029;-64
2023/06/16 07:32:14;;;;;;;13.15;4.25;;;;;;;-142.75;95.30;76151.03;5026525;28;20013;-64
2023/06/16 07:34:41;;;;;;;6.45;4.03;;;;;;;-142.75;94.75;76154.97;5026491;28;20066;-63
2023/06/16 07:37:07;;;;;;;6.15;4.13;;;;;;;-142.75;87.79;76129.38;5025930;28;20014;-63
2023/06/16 07:39:32;;;;;;;6.43;4.10;;;;;;;-142.75;92.74;76129.38;5026600;28;20021;-64
2023/06/16 07:41:58;;;;;;;6.40;3.80;;;;;;;-142.75;91.60;76121.50;5026264;28;20403;-61
2023/06/16 07:44:23;;;;;;;7.55;4.00;;;;;;;-142.75;94.83;76093.94;5025858;28;20104;-63
2023/06/16 07:46:48;;;;;;;8.23;3.92;;;;;;;-142.75;87.47;76113.63;5026777;28;20064;-63
2023/06/16 07:49:14;;;;;;;6.68;3.75;;;;;;;-142.75;86.93;76103.78;5026725;28;20029;-63
2023/06/16 07:51:40;;;;;;;7.88;4.10;;;;;;;-142.75;91.46;76072.31;5026254;28;20029;-62
2023/06/16 07:54:07;;;;;;;4.75;3.22;;;;;;;-142.75;87.62;76054.59;5026360;28;20017;-63
2023/06/16 07:56:32;;;;;;;9.55;4.05;;;;;;;-142.75;84.24;76042.78;5025438;28;20824;-64
2023/06/16 07:58:57;;;;;;;7.28;3.67;;;;;;;-142.75;84.21;76038.84;5027147;28;20056;-63
2023/06/16 08:01:23;;;;;;;7.72;3.42;;;;;;;-142.75;80.69;76048.69;5026961;28;20041;-64
2023/06/16 08:03:49;;;;;;;6.95;3.80;;;;;;;-142.75;83.54;76021.13;5027361;28;20094;-63
2023/06/16 08:06:15;;;;;;;10.50;4.00;;;;;;;-142.75;81.39;76009.31;5027758;28;20060;-63
2023/06/16 08:08:41;;;;;;;5.32;3.67;;;;;;;-142.75;83.30;75979.78;5027628;28;20070;-63
2023/06/16 08:11:07;;;;;;;7.45;3.53;;;;;;;-142.75;80.51;75971.91;5027534;28;20037;-64
2023/06/16 08:13:32;;;;;;;7.18;3.28;;;;;;;-142.75;82.29;75958.16;5025894;28;20049;-63
2023/06/16 08:15:58;;;;;;;7.65;3.47;;;;;;;-142.75;78.13;75973.88;5027653;28;20067;-64
2023/06/16 08:18:24;;;;;;;5.78;3.40;;;;;;;-142.75;81.30;75962.09;5027557;28;20029;-64
2023/06/16 08:20:49;;;;;;;4.72;3.10;;;;;;;-142.75;76.98;75952.25;5027633;28;20033;-63
2023/06/16 08:23:15;;;;;;;5.45;3.80;;;;;;;-142.75;78.80;75934.53;5042421;28;20033;-63
2023/06/16 08:25:40;;;;;;;4.75;3.13;;;;;;;-142.75;79.67;75912.88;5027623;28;20040;-63
2023/06/16 08:28:07;;;;;;;6.38;3.60;;;;;;;-142.75;78.26;75905.00;5027227;28;20021;-63
2023/06/16 08:30:34;;;;;;;4.35;2.85;;;;;;;-142.75;76.74;75879.41;5024547;28;20104;-63
2023/06/16 08:32:59;;;;;;;9.23;3.60;;;;;;;-142.75;75.55;75879.41;5026667;28;20021;-63
2023/06/16 08:35:24;;;;;;;4.38;2.72;;;;;;;-142.75;72.39;75883.34;5027687;28;20398;-63
2023/06/16 08:37:50;;;;;;;7.05;3.10;;;;;;;-142.75;72.69;75887.28;5025764;28;20107;-63
2023/06/16 08:40:15;;;;;;;5.35;3.45;;;;;;;-142.75;72.45;75889.25;5026985;28;20474;-62
2023/06/16 08:42:44;;;;;;;6.07;3.33;;;;;;;-142.75;74.13;75861.69;5026200;28;20087;-63
2023/06/16 08:45:13;;;;;;;5.25;3.20;;;;;;;-142.75;72.45;75895.16;5027088;28;20027;-63
2023/06/16 08:47:39;;;;;;;5.80;2.80;;;;;;;-142.75;72.82;75863.66;5027140;28;20032;-63
2023/06/16 08:50:09;;;;;;;4.22;2.70;;;;;;;-142.75;73.61;75859.72;5026717;28;20410;-63
2023/06/16 08:52:42;;;;;;;5.25;2.97;;;;;;;-142.75;73.94;75822.34;5025987;28;20022;-63
2023/06/16 08:55:09;;;;;;;7.45;3.28;;;;;;;-142.75;70.87;75822.34;5026000;28;20029;-63
2023/06/16 08:57:42;;;;;;;5.20;3.10;;;;;;;-142.75;67.01;75826.28;5025956;28;20156;-64
2023/06/16 09:00:10;;;;;;;3.92;2.40;;;;;;;-142.75;65.63;75818.41;5025745;28;20112;-63
2023/06/16 09:02:36;;;;;;;4.30;2.40;;;;;;;-142.75;64.51;75824.31;5025620;28;20029;-63
2023/06/16 09:05:03;;;;;;;4.00;2.58;;;;;;;-142.75;68.27;75808.56;5026097;28;20044;-63
2023/06/16 09:07:29;;;;;;;3.90;2.70;;;;;;;-142.75;68.12;75800.69;5026610;28;20483;-63
2023/06/16 09:09:55;;;;;;;7.22;2.85;;;;;;;-142.75;69.87;75784.94;5026415;28;20035;-62
2023/06/16 09:12:21;;;;;;;3.78;2.42;;;;;;;-142.75;64.16;75779.03;5025710;28;20021;-63
2023/06/16 09:14:49;;;;;;;4.32;2.45;;;;;;;-142.75;59.85;75775.09;5025519;28;20032;-63
2023/06/16 09:17:18;;;;;;;6.18;2.45;;;;;;;-142.75;58.60;75755.44;5025422;28;20024;-62
2023/06/16 09:19:47;;;;;;;4.50;2.22;;;;;;;-142.75;57.32;75777.06;5023822;28;20021;-63
2023/06/16 09:22:18;;;;;;;3.78;2.50;;;;;;;-142.75;57.41;75739.69;5025954;28;20075;-64
2023/06/16 09:25:07;;;;;;;5.38;2.30;;;;;;;-142.75;58.42;75716.06;5026269;28;20487;-64
2023/06/16 09:27:44;;;;;;;4.55;2.53;;;;;;;-142.75;55.92;75712.13;5025793;28;20036;-63
2023/06/16 09:30:15;;;;;;;3.92;2.35;;;;;;;-142.75;62.52;75696.38;5025288;28;20101;-63
2023/06/16 09:32:41;;;;;;;4.78;2.65;;;;;;;-142.75;57.96;75692.44;5025940;28;20033;-63
2023/06/16 09:35:33;;;;;;;3.08;2.10;;;;;;;-142.75;60.66;75647.19;5026006;28;20048;-63
2023/06/16 09:38:00;;;;;;;2.85;2.13;;;;;;;-142.75;56.03;75653.09;5023964;28;20115;-63
2023/06/16 09:40:28;;;;;;;3.97;2.40;;;;;;;-142.75;48.30;75635.38;5024321;28;20647;-63
2023/06/16 09:42:58;;;;;;;4.00;2.20;;;;;;;-142.75;48.80;75629.47;5025191;28;20034;-63
2023/06/16 09:45:28;;;;;;;3.67;2.03;;;;;;;-142.75;52.57;75613.72;5026627;28;20083;-63
2023/06/16 09:47:53;;;;;;;3.05;1.90;;;;;;;-142.75;44.23;75617.66;5026132;28;20021;-63
2023/06/16 09:50:23;;;;;;;3.83;2.13;;;;;;;-142.75;44.81;75617.66;5025542;28;20027;-63
2023/06/16 09:52:49;;;;;;;5.47;2.42;;;;;;;-142.75;49.51;75633.41;5025548;28;20384;-63
2023/06/16 09:55:15;;;;;;;4.00;2.15;;;;;;;-142.75;49.11;75611.75;5025639;28;20101;-64
2023/06/16 09:57:42;;;;;;;5.20;2.25;;;;;;;-142.75;52.06;75582.25;5025519;28;20033;-63
2023/06/16 10:00:13;;;;;;;3.58;2.25;;;;;;;-142.75;55.48;75558.63;5025362;28;20387;-63
2023/06/16 10:02:41;;;;;;;4.78;2.30;;;;;;;-142.75;50.84;75546.81;5025469;28;20496;-64
2023/06/16 10:05:09;;;;;;;3.58;2.08;;;;;;;-142.75;52.11;75542.88;5025479;28;20032;-62
2023/06/16 10:07:37;;;;;;;5.38;2.42;;;;;;;-142.75;51.78;75546.81;5025450;28;20053;-63
2023/06/16 10:10:14;;;;;;;3.63;2.17;;;;;;;-142.75;52.85;75531.06;5029615;28;20017;-63
2023/06/16 10:12:45;;;;;;;6.18;2.13;;;;;;;-142.75;52.14;75507.47;5029153;28;20030;-63
2023/06/16 10:15:15;;;;;;;3.85;2.38;;;;;;;-142.75;50.62;75511.41;5030123;28;20029;-63
2023/06/16 10:17:41;;;;;;;4.07;2.47;;;;;;;-142.75;47.80;75544.84;5029500;28;20061;-63
2023/06/16 10:20:12;;;;;;;3.65;2.55;;;;;;;-142.75;48.34;75558.63;5027943;28;20713;-64
2023/06/16 10:22:38;;;;;;;3.78;2.42;;;;;;;-142.75;54.73;75535.00;5028991;28;20100;-63
2023/06/16 10:25:04;;;;;;;4.80;2.28;;;;;;;-142.75;53.66;75527.13;5029301;28;20028;-64
2023/06/16 10:27:30;;;;;;;3.75;2.40;;;;;;;-142.75;49.04;75515.31;5029112;28;20567;-64
2023/06/16 10:29:59;;;;;;;3.97;2.42;;;;;;;-142.75;52.72;75479.91;5029158;28;20032;-64
2023/06/16 10:32:25;;;;;;;6.13;2.90;;;;;;;-142.75;47.06;75491.72;5029128;28;20442;-63
2023/06/16 10:34:56;;;;;;;5.22;2.20;;;;;;;-142.75;47.04;75468.09;5028825;28;20116;-63
2023/06/16 10:37:24;;;;;;;5.82;2.50;;;;;;;-142.75;49.65;75460.22;5028857;28;20041;-64
2023/06/16 10:39:54;;;;;;;3.20;2.22;;;;;;;-142.75;46.84;75444.47;5028839;28;20026;-63
2023/06/16 10:42:19;;;;;;;3.70;2.20;;;;;;;-142.75;44.40;75454.31;5027390;28;20025;-64
2023/06/16 10:44:44;;;;;;;3.45;2.47;;;;;;;-142.75;45.20;75460.22;5029102;28;20112;-63
2023/06/16 10:47:13;;;;;;;5.45;2.78;;;;;;;-142.75;44.36;75456.28;5028960;28;20018;-63
2023/06/16 10:49:50;;;;;;;5.25;2.20;;;;;;;-142.75;48.28;75446.44;5028760;28;20036;-63
2023/06/16 10:52:54;;;;;;;3.97;2.40;;;;;;;-142.75;48.68;75436.59;5028595;28;20028;-65
2023/06/16 10:55:38;;;;;;;4.50;2.60;;;;;;;-142.75;52.15;75411.03;5012511;28;20055;-63
2023/06/16 10:58:15;;;;;;;5.38;2.67;;;;;;;-142.75;46.14;75409.06;5028480;28;20040;-63
2023/06/16 11:00:42;;;;;;;4.60;2.60;;;;;;;-142.75;48.28;75401.19;5028751;28;20029;-64
2023/06/16 11:03:07;;;;;;;5.93;2.60;;;;;;;-142.75;46.52;75403.16;5028025;28;20036;-63
2023/06/16 11:05:40;;;;;;;4.18;2.35;;;;;;;-142.75;43.50;75426.78;5028244;28;20025;-63
2023/06/16 11:08:16;;;;;;;5.57;2.83;;;;;;;-142.75;44.80;75456.28;5028052;28;21517;-64
2023/06/16 11:10:52;;;;;;;3.00;1.85;;;;;;;-142.75;48.33;75405.13;5028546;28;20021;-63
2023/06/16 11:13:26;;;;;;;4.60;2.35;;;;;;;-142.75;44.41;75385.44;5027744;28;20510;-64